Time;durP1;ratioP1;P1;durP2;ratioP2;P2;SDS_P1;SDS_P2;PMS_P1;PMS_P2;Temp;Humidity;BMP_temperature;BMP_pressure;BME280_temperature;BME280_humidity;BME280_pressure;Samples;Min_cycle;Max_cycle;Signal;HPM_P1;HPM_P2
2024/03/16 00:05:26;;;;;;;72.80;33.03;;;3.20;99.90;;;;;;20821419;28;20030;-43
2024/03/16 00:15:27;;;;;;;63.55;29.40;;;2.80;99.90;;;;;;20803728;28;20555;-43
2024/03/16 00:25:29;;;;;;;82.60;34.08;;;2.80;99.90;;;;;;20801406;28;20468;-40
2024/03/16 00:35:35;;;;;;;65.88;31.02;;;3.40;99.90;;;;;;20811183;28;20072;-42
2024/03/16 00:45:38;;;;;;;66.57;32.53;;;3.70;99.90;;;;;;20859261;28;20050;-41
2024/03/16 00:55:40;;;;;;;56.60;28.17;;;4.10;99.90;;;;;;20860504;28;20041;-42
2024/03/16 01:05:44;;;;;;;53.95;28.70;;;4.30;99.90;;;;;;20845969;28;20040;-42
2024/03/16 01:15:49;;;;;;;46.63;23.88;;;4.40;99.90;;;;;;20915707;28;20040;-44
2024/03/16 01:25:51;;;;;;;42.17;23.35;;;4.60;99.90;;;;;;20897180;28;20438;-46
2024/03/16 01:35:54;;;;;;;41.85;22.55;;;4.60;99.90;;;;;;20870947;28;20063;-41
2024/03/16 01:45:56;;;;;;;46.45;24.10;;;4.70;99.90;;;;;;20835122;28;20042;-47
2024/03/16 01:55:58;;;;;;;36.80;20.35;;;4.60;99.90;;;;;;20801538;28;20029;-40
2024/03/16 02:05:59;;;;;;;36.85;20.25;;;4.60;99.90;;;;;;20829818;28;20029;-41
2024/03/16 02:16:02;;;;;;;37.60;20.23;;;4.80;99.90;;;;;;20790132;28;20038;-42
2024/03/16 02:26:11;;;;;;;36.67;20.92;;;4.70;99.90;;;;;;20802007;28;20068;-44
2024/03/16 02:36:13;;;;;;;33.88;19.55;;;4.70;99.90;;;;;;20866017;28;20037;-45
2024/03/16 02:46:15;;;;;;;36.65;20.70;;;4.80;99.90;;;;;;20883099;28;20034;-41
2024/03/16 02:56:17;;;;;;;36.67;19.40;;;4.90;99.90;;;;;;20904929;28;20045;-44
2024/03/16 03:06:19;;;;;;;32.72;18.38;;;5.00;99.90;;;;;;20896057;28;20114;-41
2024/03/16 03:16:21;;;;;;;31.35;17.85;;;4.90;99.90;;;;;;20874868;28;20361;-42
2024/03/16 03:26:23;;;;;;;28.98;16.35;;;4.70;99.90;;;;;;20862708;28;20029;-43
2024/03/16 03:36:25;;;;;;;28.38;15.52;;;4.70;99.90;;;;;;20826020;28;20039;-44
2024/03/16 03:46:39;;;;;;;28.55;15.52;;;4.50;99.90;;;;;;20820589;28;20061;-44
2024/03/16 03:56:41;;;;;;;31.10;16.95;;;4.30;99.90;;;;;;20816988;28;20033;-41
2024/03/16 04:06:44;;;;;;;29.92;16.52;;;4.00;99.90;;;;;;20814757;28;20030;-45
2024/03/16 04:16:48;;;;;;;34.92;16.90;;;3.90;99.90;;;;;;20818721;28;20123;-40
2024/03/16 04:26:49;;;;;;;33.40;17.73;;;3.90;99.90;;;;;;20820615;28;20037;-41
2024/03/16 04:36:52;;;;;;;34.20;17.08;;;3.80;99.90;;;;;;20853509;28;20037;-41
2024/03/16 04:46:54;;;;;;;38.55;18.95;;;3.60;99.90;;;;;;20871051;28;20095;-42
2024/03/16 04:56:56;;;;;;;43.30;19.58;;;3.50;99.90;;;;;;20832971;28;20025;-40
2024/03/16 05:06:58;;;;;;;39.05;19.73;;;3.20;99.90;;;;;;20916355;28;20029;-40
2024/03/16 05:17:03;;;;;;;38.72;19.58;;;3.20;99.90;;;;;;20898255;28;20032;-40
2024/03/16 05:27:07;;;;;;;40.90;20.27;;;3.30;99.90;;;;;;20915135;28;20025;-45
2024/03/16 05:37:09;;;;;;;40.83;19.80;;;3.10;99.90;;;;;;20889596;28;20053;-40
2024/03/16 05:47:11;;;;;;;41.65;21.00;;;3.00;99.90;;;;;;20827985;28;20037;-42
2024/03/16 05:57:13;;;;;;;39.08;20.02;;;3.00;99.90;;;;;;20810981;28;20342;-41
2024/03/16 06:07:15;;;;;;;39.13;19.38;;;3.10;99.90;;;;;;20802734;28;20092;-41
2024/03/16 06:17:16;;;;;;;36.80;19.23;;;3.40;99.90;;;;;;20803449;28;20381;-44
2024/03/16 06:27:21;;;;;;;31.17;18.00;;;3.70;99.90;;;;;;20827791;28;20041;-43
2024/03/16 06:37:23;;;;;;;37.00;18.83;;;4.10;99.90;;;;;;20849245;28;20103;-41
2024/03/16 06:47:25;;;;;;;31.50;17.17;;;4.00;99.90;;;;;;20906332;28;20047;-41
2024/03/16 06:57:26;;;;;;;33.30;17.63;;;4.20;99.90;;;;;;20906812;28;20032;-44
2024/03/16 07:07:30;;;;;;;27.30;15.23;;;4.70;99.90;;;;;;20904409;28;20083;-43
2024/03/16 07:17:32;;;;;;;30.92;16.20;;;5.20;99.90;;;;;;20876253;28;20037;-49
2024/03/16 07:27:33;;;;;;;24.35;15.02;;;6.10;99.90;;;;;;20891194;28;20072;-43
2024/03/16 07:37:35;;;;;;;25.77;16.75;;;7.30;99.90;;;;;;20785211;28;20099;-44
2024/03/16 07:47:37;;;;;;;28.15;16.98;;;8.30;99.90;;;;;;20777019;28;20057;-44
2024/03/16 07:57:39;;;;;;;27.95;18.48;;;8.60;99.90;;;;;;20808346;28;20092;-45
2024/03/16 08:07:41;;;;;;;26.90;17.17;;;8.70;99.90;;;;;;20777978;28;20037;-44
2024/03/16 08:17:43;;;;;;;26.15;16.50;;;9.50;99.90;;;;;;20819694;28;20099;-45
2024/03/16 08:27:45;;;;;;;26.73;17.25;;;10.10;99.90;;;;;;20813439;28;20075;-45
2024/03/16 08:37:47;;;;;;;30.35;19.67;;;10.80;99.90;;;;;;20814208;28;20046;-45
2024/03/16 08:47:49;;;;;;;28.90;19.25;;;11.50;99.90;;;;;;20771681;28;20045;-45
2024/03/16 08:57:51;;;;;;;25.83;18.40;;;12.30;99.90;;;;;;20752032;28;20036;-47
2024/03/16 09:07:52;;;;;;;26.27;18.20;;;12.90;99.90;;;;;;20792610;28;20036;-43
2024/03/16 09:17:55;;;;;;;23.92;16.92;;;12.40;99.90;;;;;;20832757;28;20037;-46
2024/03/16 09:27:56;;;;;;;29.70;19.52;;;11.70;99.90;;;;;;20832763;28;20404;-45
2024/03/16 09:37:58;;;;;;;28.13;19.35;;;11.30;99.90;;;;;;20897290;28;20041;-45
2024/03/16 09:48:01;;;;;;;26.88;18.85;;;11.00;99.90;;;;;;20870235;28;20042;-45
2024/03/16 09:58:07;;;;;;;28.05;19.52;;;11.10;99.90;;;;;;20896540;28;20025;-44
2024/03/16 10:08:09;;;;;;;31.95;21.67;;;11.80;99.90;;;;;;20839543;28;20041;-44
2024/03/16 10:18:14;;;;;;;29.17;21.25;;;12.50;99.90;;;;;;20868971;28;20029;-46
2024/03/16 10:28:16;;;;;;;30.85;22.00;;;13.40;99.90;;;;;;20842437;28;20037;-47
2024/03/16 10:38:19;;;;;;;30.02;20.58;;;14.10;99.90;;;;;;20871634;28;20091;-43
2024/03/16 10:48:21;;;;;;;32.72;22.27;;;14.30;99.90;;;;;;20848502;28;20029;-45
2024/03/16 10:58:27;;;;;;;31.70;23.65;;;14.30;99.90;;;;;;20880399;28;20032;-43
2024/03/16 11:08:44;;;;;;;32.38;23.48;;;13.90;99.90;;;;;;20844762;28;20345;-44
2024/03/16 11:18:48;;;;;;;36.78;27.02;;;13.50;99.90;;;;;;20882894;28;20110;-46
2024/03/16 11:28:50;;;;;;;44.38;30.00;;;13.40;99.90;;;;;;20902673;28;20033;-45
2024/03/16 11:38:55;;;;;;;48.33;34.58;;;13.00;99.90;;;;;;20886643;28;20041;-42
2024/03/16 11:48:59;;;;;;;55.58;37.35;;;12.10;99.90;;;;;;20905343;28;20045;-43
2024/03/16 11:59:04;;;;;;;59.55;40.80;;;12.10;99.90;;;;;;20835665;28;20039;-45
2024/03/16 12:09:13;;;;;;;55.30;38.22;;;13.00;99.90;;;;;;20861611;28;20091;-46
2024/03/16 12:19:15;;;;;;;46.20;34.03;;;13.80;99.90;;;;;;20893546;28;20040;-44
2024/03/16 12:29:19;;;;;;;51.58;36.08;;;14.00;99.90;;;;;;20848213;28;20037;-44
2024/03/16 12:39:24;;;;;;;62.33;43.50;;;12.90;99.90;;;;;;20793693;28;20103;-41
2024/03/16 12:49:27;;;;;;;62.65;41.38;;;11.90;99.90;;;;;;20819753;28;20092;-43
2024/03/16 12:59:30;;;;;;;59.97;40.67;;;10.90;99.90;;;;;;20827900;28;20038;-44
2024/03/16 13:09:33;;;;;;;55.92;37.63;;;10.80;99.90;;;;;;20770810;28;20057;-44
2024/03/16 13:19:35;;;;;;;52.30;36.45;;;11.40;99.90;;;;;;20783706;28;20036;-46
2024/03/16 13:29:37;;;;;;;40.45;29.95;;;11.80;99.90;;;;;;20834327;28;20041;-45
2024/03/16 13:39:39;;;;;;;40.47;28.58;;;13.10;99.90;;;;;;20838974;28;20037;-42
2024/03/16 13:49:40;;;;;;;33.63;25.50;;;13.80;99.90;;;;;;20826817;28;20029;-44
2024/03/16 13:59:42;;;;;;;32.13;24.10;;;13.40;99.90;;;;;;20809462;28;20037;-48
2024/03/16 14:09:44;;;;;;;31.40;24.38;;;13.90;99.90;;;;;;20828394;28;20033;-46
2024/03/16 14:19:50;;;;;;;34.90;25.10;;;14.50;99.90;;;;;;20877118;28;20025;-45
2024/03/16 14:29:52;;;;;;;32.33;23.08;;;14.30;99.90;;;;;;20910468;28;20036;-45
2024/03/16 14:39:54;;;;;;;28.35;21.65;;;14.50;99.90;;;;;;20818330;28;20095;-44
2024/03/16 14:49:56;;;;;;;26.90;21.23;;;14.50;99.90;;;;;;20825846;28;20034;-44
2024/03/16 14:59:59;;;;;;;26.80;20.05;;;14.40;99.90;;;;;;20785527;28;20038;-45
2024/03/16 15:10:01;;;;;;;24.60;19.05;;;13.40;99.90;;;;;;20842949;28;20048;-45
2024/03/16 15:20:07;;;;;;;22.45;16.33;;;12.70;99.90;;;;;;20875152;28;20025;-44
2024/03/16 15:30:10;;;;;;;22.90;18.15;;;12.50;99.90;;;;;;20825114;28;20083;-43
2024/03/16 15:40:15;;;;;;;26.98;19.10;;;11.60;99.90;;;;;;20738559;28;20030;-43
2024/03/16 15:50:16;;;;;;;22.33;16.48;;;10.80;99.90;;;;;;20802739;28;20041;-42
2024/03/16 16:00:19;;;;;;;24.98;17.77;;;10.60;99.90;;;;;;20904299;28;20431;-46
2024/03/16 16:10:21;;;;;;;27.23;18.23;;;10.40;99.90;;;;;;20893087;28;20041;-46
2024/03/16 16:20:23;;;;;;;25.70;16.02;;;10.10;99.90;;;;;;20894563;28;20091;-44
2024/03/16 16:30:25;;;;;;;23.20;17.38;;;9.60;99.90;;;;;;20838013;28;20053;-41
2024/03/16 16:40:30;;;;;;;30.33;20.58;;;8.60;99.90;;;;;;20879034;28;20038;-42
2024/03/16 16:50:32;;;;;;;39.03;24.20;;;7.70;99.90;;;;;;20824931;28;20083;-46
2024/03/16 17:00:36;;;;;;;39.10;26.27;;;7.00;99.90;;;;;;20917532;28;20029;-44
2024/03/16 17:10:38;;;;;;;49.30;29.42;;;6.40;99.90;;;;;;20899122;28;20037;-43
2024/03/16 17:20:40;;;;;;;43.70;26.05;;;5.90;99.90;;;;;;20867802;28;20541;-44
2024/03/16 17:30:45;;;;;;;53.88;32.80;;;5.80;99.90;;;;;;20914156;28;20037;-42
2024/03/16 17:40:47;;;;;;;50.00;30.75;;;5.50;99.90;;;;;;20891289;28;20090;-46
2024/03/16 17:50:49;;;;;;;55.42;33.92;;;5.20;99.90;;;;;;20869635;28;20538;-40
2024/03/16 18:00:51;;;;;;;54.63;30.77;;;4.90;99.90;;;;;;20867333;28;20147;-42
2024/03/16 18:10:55;;;;;;;56.60;32.33;;;4.70;99.90;;;;;;20840180;28;20041;-42
2024/03/16 18:20:58;;;;;;;66.57;36.50;;;4.60;99.90;;;;;;20842946;28;20036;-41
2024/03/16 18:31:04;;;;;;;61.95;34.90;;;4.50;99.90;;;;;;20820476;28;20061;-40
2024/03/16 18:41:10;;;;;;;61.30;33.67;;;4.20;99.90;;;;;;20780954;28;20056;-42
2024/03/16 18:51:14;;;;;;;65.88;37.05;;;4.30;99.90;;;;;;20824792;28;20361;-42
2024/03/16 19:01:16;;;;;;;55.72;30.15;;;4.30;99.90;;;;;;20743711;28;20379;-43
2024/03/16 19:11:20;;;;;;;67.93;36.97;;;4.10;99.90;;;;;;20743046;28;20334;-41
2024/03/16 19:21:22;;;;;;;66.70;37.47;;;4.10;99.90;;;;;;20759717;28;20025;-42
2024/03/16 19:31:27;;;;;;;64.32;35.28;;;4.00;99.90;;;;;;20807423;28;20068;-42
2024/03/16 19:41:30;;;;;;;60.20;33.40;;;4.00;99.90;;;;;;20882338;28;20037;-42
2024/03/16 19:51:32;;;;;;;62.35;33.25;;;3.80;99.90;;;;;;20903920;28;20468;-41
2024/03/16 20:01:34;;;;;;;61.97;34.45;;;3.70;99.90;;;;;;20901654;28;20029;-40
2024/03/16 20:11:39;;;;;;;63.22;32.95;;;3.60;99.90;;;;;;20902450;28;20037;-40
2024/03/16 20:21:41;;;;;;;70.75;37.33;;;3.50;99.90;;;;;;20882966;28;20029;-43
2024/03/16 20:31:43;;;;;;;59.83;33.58;;;3.70;99.90;;;;;;20838158;28;20049;-41
2024/03/16 20:41:45;;;;;;;52.33;30.65;;;4.10;99.90;;;;;;20902495;28;20036;-41
2024/03/16 20:51:47;;;;;;;48.38;28.77;;;4.60;99.90;;;;;;20901956;28;20163;-43
2024/03/16 21:01:49;;;;;;;48.58;28.80;;;4.90;99.90;;;;;;20883805;28;20033;-44
2024/03/16 21:11:51;;;;;;;52.30;31.08;;;5.20;99.90;;;;;;20906629;28;20112;-42
2024/03/16 21:21:53;;;;;;;45.05;27.65;;;5.20;99.90;;;;;;20915883;28;20055;-42
2024/03/16 21:31:55;;;;;;;39.03;23.70;;;5.00;99.90;;;;;;20914964;28;20041;-42
2024/03/16 21:41:57;;;;;;;55.35;30.45;;;4.40;99.90;;;;;;20832088;28;20079;-42
2024/03/16 21:51:59;;;;;;;57.30;31.45;;;4.30;99.90;;;;;;20776809;28;20034;-41
2024/03/16 22:02:01;;;;;;;69.05;37.80;;;4.10;99.90;;;;;;20748518;28;20092;-42
2024/03/16 22:12:03;;;;;;;57.10;30.02;;;3.80;99.90;;;;;;20793421;28;20065;-40
2024/03/16 22:22:05;;;;;;;47.20;27.35;;;3.60;99.90;;;;;;20770376;28;20036;-42
2024/03/16 22:32:08;;;;;;;34.28;20.73;;;3.70;99.90;;;;;;20847832;28;20060;-40
2024/03/16 22:42:10;;;;;;;63.03;34.72;;;3.40;99.90;;;;;;20909825;28;20025;-40
2024/03/16 22:52:12;;;;;;;62.10;33.05;;;3.40;99.90;;;;;;20881162;28;20480;-46
2024/03/16 23:02:20;;;;;;;71.57;36.47;;;3.50;99.90;;;;;;20908337;28;20037;-41
2024/03/16 23:12:22;;;;;;;61.78;33.83;;;3.50;99.90;;;;;;20889380;28;20036;-40
2024/03/16 23:22:25;;;;;;;42.17;23.48;;;3.80;99.90;;;;;;20886125;28;20037;-43
2024/03/16 23:32:27;;;;;;;19.85;10.88;;;3.60;99.90;;;;;;20887951;28;20423;-41
2024/03/16 23:42:29;;;;;;;13.23;7.53;;;3.30;99.90;;;;;;20858052;28;20314;-41
2024/03/16 23:52:31;;;;;;;3.95;2.20;;;3.10;99.90;;;;;;20849232;28;20021;-41
